Toledo, Iowa
Current Conditions -  °F | °C
As of 11:53 AM on Saturday 25 Oct 2014 (Local Time) from KMIW Reporting Station
Clear Clear  
Wind Chill: 65°   Ceiling: Unl
Heat Index: 65°   Visibility: 10mi
Dew Point: 41°   Wind: 9mph
Humidity: 42%   Direction: 350°N
Pressure: 30.09"   Gusts: NA
Location:  42°N, 92.58°W
Report Text: KMIW 251653Z AUTO 35008KT 10SM CLR 18/05 A3009 RMK AO2 SLP189 T01830050
Loading
Personal Weather Stations






























Interactive Weather Map
Tropical Storm Tracking
New forecast layout! Learn more

10-Day Weather Forecast

Advertisements
Track Severe Weather on mobile